WSSS Airport Informations

Runway Information
Runway 02C Length 13123 ft width 197 ft
Elevation 15 ft Threshold ft Heading 23
Runway 20C Length 13123 ft Width 197 ft
Elevation 15 ft Threshold ft Heading 203
Runway 02R Length 13123 ft width 197 ft
Elevation 16 ft Threshold ft Heading 23
Runway 20L Length 13123 ft Width 197 ft
Elevation 15 ft Threshold ft Heading 203
Runway 02L Length 13123 ft width 197 ft
Elevation 22 ft Threshold ft Heading 23
Runway 20R Length 13123 ft Width 197 ft
Elevation 14 ft Threshold 2429 ft Heading 203
Airport Frequencies
Type A/D Name APP/DEP Frequency 120.3 MHZ
Type ARR Name ARR Frequency 119.3 MHZ
Type ATIS Name ATIS Frequency 128.6 MHZ
Type CLD Name CLNC DEL Frequency 121.65 MHZ
Type GND Name GND Frequency 124.3 MHZ
Type TWR Name TWR Frequency 118.6 MHZ
Airport Navaids
Type NDB Name Bedok Frequency 232 KHZ
Type VOR-DME Name Tekong Frequency 116500 KHZ
Airport Weather Information & NOTAM
ADDS - METARS form results

(1150 UTC 14 August 2022)
Data provider http://aviationweather.gov/metar/data/
 
METAR text: WSSS 141130Z 10004KT 070V130 9999 FEW018 SCT150 BKN300 29/23 Q1008 NOSIG
Conditions at: WSSS (SINGAPORE/CHANGI, SG) observed 1130 UTC 14 August 2022
Temperature: 29.0°C (84°F)
Dewpoint: 23.0°C (73°F) [RH = 70%]
Pressure (altimeter): 29.76 inches Hg (1008.0 mb)
Winds: from the E (100 degrees) at 5 MPH (4 knots; 2.1 m/s)
Visibility: 6 or more miles (10+ km)
Ceiling: 30000 feet AGL
Clouds: few clouds at 1800 feet AGL
scattered clouds at 15000 feet AGL
broken clouds at 30000 feet AGL
Weather: no significant weather observed at this time

METAR text: WSSS 141100Z 11005KT 080V150 9999 FEW020 BKN300 29/23 Q1008 NOSIG
Conditions at: WSSS (SINGAPORE/CHANGI, SG) observed 1100 UTC 14 August 2022
Temperature: 29.0°C (84°F)
Dewpoint: 23.0°C (73°F) [RH = 70%]
Pressure (altimeter): 29.76 inches Hg (1008.0 mb)
Winds: from the ESE (110 degrees) at 6 MPH (5 knots; 2.6 m/s)
Visibility: 6 or more miles (10+ km)
Ceiling: 30000 feet AGL
Clouds: few clouds at 2000 feet AGL
broken clouds at 30000 feet AGL
Weather: no significant weather observed at this time

Forecast for: WSSS (SINGAPORE/CHANGI, SG)
Text: TAF WSSS 141100Z 1412/1518 20007KT 9999 FEW015 BKN020
Forecast period: 1200 UTC 14 August 2022 to 1800 UTC 15 August 2022
Forecast type: FROM: standard forecast or significant change
Winds: from the SSW (200 degrees) at 8 MPH (7 knots; 3.6 m/s)
Visibility: 6 or more miles (10+ km)
Ceiling: 2000 feet AGL
Clouds: few clouds at 1500 feet AGL
broken clouds at 2000 feet AGL
Weather: no significant weather forecast for this period
Text: TEMPO 1504/1508 3000 TSRA FEW012CB BKN015
Forecast period: 0400 to 0800 UTC 15 August 2022
Forecast type: TEMPORARY: The following changes expected for less than half the time period
Visibility: 1.86 miles (2.99 km)
Ceiling: 1500 feet AGL
Clouds: few clouds at 1200 feet AGL
broken clouds at 1500 feet AGL
Weather: TSRA  (rain associated with thunderstorm(s))